createdAt,value
2023-04-04T00:01:04.338Z,25.4
2023-04-04T00:06:41.419Z,25.4
2023-04-04T00:12:33.338Z,25.4
2023-04-04T00:18:09.856Z,25.4
2023-04-04T00:23:46.796Z,25.4
2023-04-04T00:29:38.149Z,25.3
2023-04-04T00:35:30.399Z,25.3
2023-04-04T00:41:06.173Z,25.3
2023-04-04T00:46:58.011Z,25.3
2023-04-04T00:52:35.388Z,25.3
2023-04-04T00:58:26.929Z,25.3
2023-04-04T01:04:19.793Z,25.2
2023-04-04T01:10:11.240Z,25.2
2023-04-04T01:15:46.892Z,25.2
2023-04-04T01:21:23.153Z,25.2
2023-04-04T01:26:58.739Z,25.2
2023-04-04T01:32:50.433Z,25.2
2023-04-04T01:38:43.291Z,25.1
2023-04-04T01:44:36.053Z,25.1
2023-04-04T01:50:14.491Z,25.1
2023-04-04T01:55:35.564Z,25.1
2023-04-04T02:01:27.147Z,25.1
2023-04-04T02:07:04.035Z,25.1
2023-04-04T02:12:54.981Z,25.1
2023-04-04T02:18:34.233Z,25
2023-04-04T02:24:10.480Z,25
2023-04-04T02:29:46.349Z,25
2023-04-04T02:35:38.237Z,25
2023-04-04T02:41:30.165Z,24.9
2023-04-04T02:47:27.787Z,24.9
2023-04-04T02:53:19.170Z,24.9
2023-04-04T02:59:11.072Z,24.9
2023-04-04T03:04:48.984Z,24.9
2023-04-04T03:10:39.934Z,24.9
2023-04-04T03:16:31.278Z,24.9
2023-04-04T03:22:07.885Z,24.9
2023-04-04T03:27:44.393Z,24.8
2023-04-04T03:33:36.076Z,24.8
2023-04-04T03:39:27.243Z,24.8
2023-04-04T03:45:18.998Z,25
2023-04-04T03:51:10.755Z,25.1
2023-04-04T03:57:02.464Z,25.2
2023-04-04T04:02:38.788Z,25.2
2023-04-04T04:08:32.333Z,25.1
2023-04-04T04:14:24.048Z,25.1
2023-04-04T04:20:16.598Z,25
2023-04-04T04:26:08.372Z,24.9
2023-04-04T04:31:59.779Z,24.9
2023-04-04T04:37:38.341Z,24.9
2023-04-04T04:43:29.753Z,24.8
2023-04-04T04:49:22.291Z,24.8
2023-04-04T04:55:14.556Z,24.8
2023-04-04T05:01:07.025Z,24.8
2023-04-04T05:06:58.848Z,24.7
2023-04-04T05:12:50.659Z,24.6
2023-04-04T05:18:43.893Z,24.6
2023-04-04T05:24:35.266Z,24.6
2023-04-04T05:30:26.936Z,24.6
2023-04-04T05:36:19.549Z,24.6
2023-04-04T05:42:11.769Z,24.6
2023-04-04T05:47:48.787Z,24.6
2023-04-04T05:53:40.381Z,24.5
2023-04-04T05:59:32.809Z,24.5
2023-04-04T06:05:25.101Z,24.4
2023-04-04T06:11:22.192Z,24.4
2023-04-04T06:17:16.325Z,24.3
2023-04-04T06:23:08.664Z,24.3
2023-04-04T06:29:00.325Z,24.3
2023-04-04T06:34:52.884Z,24.2
2023-04-04T06:40:44.956Z,24.1
2023-04-04T06:46:36.759Z,24.1
2023-04-04T06:52:13.360Z,24.1
2023-04-04T06:58:05.209Z,24.1
2023-04-04T07:03:58.428Z,24
2023-04-04T07:10:02.195Z,23.9
2023-04-04T07:15:54.233Z,23.9
2023-04-04T07:21:52.926Z,23.9
2023-04-04T07:27:45.151Z,23.9
2023-04-04T07:33:47.847Z,23.8
2023-04-04T07:39:39.633Z,23.8
2023-04-04T07:51:08.211Z,23.8
2023-04-04T07:56:59.491Z,23.8
2023-04-04T08:02:52.204Z,23.7
2023-04-04T08:08:44.911Z,23.7
2023-04-04T08:14:37.155Z,23.7
2023-04-04T08:20:29.424Z,23.7
2023-04-04T08:26:22.936Z,23.6
2023-04-04T08:32:24.780Z,23.6
2023-04-04T08:38:30.415Z,23.6
2023-04-04T08:44:22.397Z,23.6
2023-04-04T08:50:15.131Z,23.6
2023-04-04T08:56:07.077Z,23.6
2023-04-04T09:02:01.345Z,23.5
2023-04-04T09:08:09.260Z,23.5
2023-04-04T09:14:13.175Z,23.5
2023-04-04T09:20:05.501Z,23.4
2023-04-04T09:26:04.244Z,23.4
2023-04-04T09:31:42.594Z,23.4
2023-04-04T09:37:35.462Z,23.3
2023-04-04T09:43:28.797Z,23.3
2023-04-04T09:49:41.986Z,23.3
2023-04-04T09:55:54.445Z,23.3
2023-04-04T10:02:02.725Z,23.2
2023-04-04T10:08:06.005Z,23.2
2023-04-04T10:14:11.860Z,23.2
2023-04-04T10:20:04.422Z,23.2
2023-04-04T10:26:08.230Z,23.1
2023-04-04T10:32:14.492Z,23.1
2023-04-04T10:38:07.134Z,23.1
2023-04-04T10:43:58.837Z,23.1
2023-04-04T10:49:50.215Z,23.1
2023-04-04T10:55:52.318Z,23.1
2023-04-04T11:01:45.127Z,23
2023-04-04T11:07:37.631Z,22.9
2023-04-04T11:14:01.527Z,22.9
2023-04-04T11:20:10.961Z,22.9
2023-04-04T11:26:02.414Z,22.8
2023-04-04T11:31:55.048Z,22.8
2023-04-04T11:38:00.931Z,22.8
2023-04-04T11:43:52.415Z,22.7
2023-04-04T11:49:44.372Z,22.7
2023-04-04T11:55:21.560Z,22.6
2023-04-04T12:01:22.315Z,22.6
2023-04-04T12:07:15.515Z,22.6
2023-04-04T12:13:07.324Z,22.6
2023-04-04T12:19:13.085Z,22.5
2023-04-04T12:25:06.951Z,22.5
2023-04-04T12:30:59.118Z,22.5
2023-04-04T12:36:51.498Z,22.5
2023-04-04T12:42:43.483Z,22.5
2023-04-04T12:48:35.737Z,22.4
2023-04-04T12:54:48.706Z,22.4
2023-04-04T13:00:47.878Z,22.4
2023-04-04T13:06:40.203Z,22.4
2023-04-04T13:12:32.058Z,22.4
2023-04-04T13:18:11.842Z,22.4
2023-04-04T13:24:03.634Z,22.4
2023-04-04T13:29:55.450Z,22.4
2023-04-04T13:35:48.285Z,22.4
2023-04-04T13:41:40.007Z,22.3
2023-04-04T13:47:32.151Z,22.1
2023-04-04T13:53:25.948Z,22
2023-04-04T13:59:41.425Z,21.9
2023-04-04T14:05:45.626Z,21.8
2023-04-04T14:11:46.143Z,21.7
2023-04-04T14:17:40.045Z,21.7
2023-04-04T14:23:32.187Z,21.7
2023-04-04T14:29:08.977Z,21.7
2023-04-04T14:35:02.778Z,21.7
2023-04-04T14:40:56.648Z,21.7
2023-04-04T14:46:48.883Z,21.6
2023-04-04T14:52:41.129Z,21.6
2023-04-04T14:58:51.002Z,21.6
2023-04-04T15:04:46.050Z,21.6
2023-04-04T15:10:39.655Z,21.6
2023-04-04T15:16:16.458Z,21.6
2023-04-04T15:21:53.404Z,21.5
2023-04-04T15:27:47.022Z,21.6
2023-04-04T15:33:42.485Z,21.6
2023-04-04T15:39:39.648Z,21.6
2023-04-04T15:45:31.461Z,21.6
2023-04-04T15:51:07.981Z,21.6
2023-04-04T15:57:00.951Z,21.5
2023-04-04T16:02:53.351Z,21.4
2023-04-04T16:08:45.025Z,21.4
2023-04-04T16:14:39.089Z,21.4
2023-04-04T16:20:32.803Z,21.3
2023-04-04T16:26:24.095Z,21.3
2023-04-04T16:32:17.150Z,21.3
2023-04-04T16:43:35.878Z,21.1
2023-04-04T16:49:33.647Z,21
2023-04-04T16:55:28.501Z,20.9
2023-04-04T17:01:25.017Z,20.9
2023-04-04T17:07:25.546Z,20.9
2023-04-04T17:13:25.074Z,20.8
2023-04-04T17:19:10.123Z,20.8
2023-04-04T17:24:55.994Z,20.7
2023-04-04T17:30:56.591Z,20.7
2023-04-04T17:36:56.508Z,20.6
2023-04-04T17:42:41.059Z,20.6
2023-04-04T17:48:25.036Z,20.6
2023-04-04T17:54:10.620Z,20.5
2023-04-04T17:59:59.634Z,20.4
2023-04-04T18:05:57.278Z,20.4
2023-04-04T18:11:55.412Z,20.4
2023-04-04T18:18:03.687Z,20.4
2023-04-04T18:24:17.288Z,20.4
2023-04-04T18:30:17.112Z,20.3
2023-04-04T18:36:16.467Z,20.3
2023-04-04T18:42:00.371Z,20.3
2023-04-04T18:48:10.971Z,20.2
2023-04-04T18:53:55.983Z,20.3
2023-04-04T18:59:57.407Z,20.2
2023-04-04T19:06:01.531Z,20.2
2023-04-04T19:12:02.733Z,20.2
2023-04-04T19:18:04.840Z,20.1
2023-04-04T19:24:04.076Z,20.1
2023-04-04T19:29:50.255Z,20.1
2023-04-04T19:35:51.002Z,20.1
2023-04-04T19:41:51.453Z,20.2
2023-04-04T19:47:53.641Z,20.4
2023-04-04T19:53:54.707Z,20.9
2023-04-04T19:59:58.378Z,21.4
2023-04-04T20:06:07.624Z,22
2023-04-04T20:12:07.289Z,22.6
2023-04-04T20:18:07.274Z,23.1
2023-04-04T20:24:09.909Z,23.6
2023-04-04T20:29:53.151Z,23.9
2023-04-04T20:35:53.611Z,24.1
2023-04-04T20:41:55.727Z,24.3
2023-04-04T20:47:55.847Z,24.4
2023-04-04T20:53:56.577Z,24.4
2023-04-04T20:59:41.016Z,24.5
2023-04-04T21:05:44.616Z,24.5
2023-04-04T21:11:44.167Z,24.6
2023-04-04T21:17:27.094Z,24.6
2023-04-04T21:23:28.400Z,24.6
2023-04-04T21:29:28.200Z,24.6
2023-04-04T21:35:27.665Z,24.6
2023-04-04T21:41:22.579Z,24.6
2023-04-04T21:47:16.463Z,24.6
2023-04-04T21:53:10.731Z,24.6
2023-04-04T21:59:03.205Z,24.6
2023-04-04T22:04:56.180Z,24.5
2023-04-04T22:10:41.193Z,24.6
2023-04-04T22:16:35.997Z,24.6
2023-04-04T22:22:27.792Z,24.6
2023-04-04T22:28:19.171Z,24.6
2023-04-04T22:34:10.198Z,24.6
2023-04-04T22:40:02.773Z,24.6
2023-04-04T22:45:54.622Z,24.6
2023-04-04T22:51:31.848Z,24.6
2023-04-04T22:57:23.809Z,24.6
2023-04-04T23:03:16.253Z,24.6
2023-04-04T23:09:08.117Z,24.6
2023-04-04T23:14:44.788Z,24.6
2023-04-04T23:20:36.898Z,24.6
2023-04-04T23:26:27.992Z,24.6
2023-04-04T23:32:20.343Z,24.6
2023-04-04T23:38:11.976Z,24.5
2023-04-04T23:44:03.561Z,24.6
2023-04-04T23:49:40.310Z,24.5
2023-04-04T23:55:16.886Z,24.5
